createdAt,value
2022-08-16T00:03:37.634Z,21.53
2022-08-16T00:09:41.719Z,21.45
2022-08-16T00:15:51.739Z,21.41
2022-08-16T00:22:01.644Z,21.29
2022-08-16T00:28:06.636Z,21.13
2022-08-16T00:34:09.745Z,20.93
2022-08-16T00:40:49.705Z,20.86
2022-08-16T00:47:06.439Z,20.78
2022-08-16T00:53:13.524Z,20.82
2022-08-16T00:59:20.213Z,20.91
2022-08-16T01:05:25.984Z,20.85
2022-08-16T01:11:29.481Z,20.85
2022-08-16T01:17:36.685Z,20.82
2022-08-16T01:24:02.288Z,20.67
2022-08-16T01:30:20.705Z,20.57
2022-08-16T01:36:26.596Z,20.37
2022-08-16T01:42:28.770Z,20.34
2022-08-16T01:48:33.552Z,20.21
2022-08-16T01:54:37.714Z,20.01
2022-08-16T02:00:40.237Z,19.78
2022-08-16T02:06:46.591Z,19.69
2022-08-16T02:12:51.906Z,19.70
2022-08-16T02:18:59.248Z,19.46
2022-08-16T02:25:02.239Z,19.32
2022-08-16T02:31:10.148Z,19.41
2022-08-16T02:37:13.072Z,19.41
2022-08-16T02:43:33.169Z,19.44
2022-08-16T02:50:34.336Z,19.50
2022-08-16T02:55:59.201Z,19.38
2022-08-16T03:02:08.842Z,19.29
2022-08-16T03:08:50.313Z,19.07
2022-08-16T03:14:34.457Z,18.90
2022-08-16T03:20:37.110Z,18.83
2022-08-16T03:26:40.001Z,18.61
2022-08-16T03:32:51.755Z,18.43
2022-08-16T03:38:54.170Z,18.39
2022-08-16T03:45:02.912Z,18.29
2022-08-16T03:51:12.208Z,18.41
2022-08-16T03:57:16.446Z,18.21
2022-08-16T04:03:18.828Z,18.09
2022-08-16T04:09:20.802Z,18.07
2022-08-16T04:15:23.569Z,18.03
2022-08-16T04:21:29.740Z,18.12
2022-08-16T04:27:32.930Z,18.12
2022-08-16T04:33:36.580Z,17.92
2022-08-16T04:39:47.290Z,17.81
2022-08-16T04:46:00.238Z,17.88
2022-08-16T04:52:03.401Z,17.98
2022-08-16T04:58:43.633Z,18.16
2022-08-16T05:04:30.057Z,18.39
2022-08-16T05:10:32.448Z,18.94
2022-08-16T05:16:35.169Z,19.08
2022-08-16T05:22:39.300Z,19.15
2022-08-16T05:28:47.319Z,19.19
2022-08-16T05:34:57.474Z,19.37
2022-08-16T05:41:01.467Z,19.85
2022-08-16T05:47:04.450Z,20.11
2022-08-16T05:53:10.003Z,20.26
2022-08-16T05:59:13.338Z,20.54
2022-08-16T06:05:15.841Z,20.87
2022-08-16T06:11:17.886Z,21.05
2022-08-16T06:17:20.949Z,21.36
2022-08-16T06:23:26.254Z,21.70
2022-08-16T06:29:28.264Z,21.91
2022-08-16T06:35:40.170Z,22.23
2022-08-16T06:41:42.538Z,22.65
2022-08-16T06:47:53.725Z,22.99
2022-08-16T06:53:58.658Z,23.27
2022-08-16T07:00:02.147Z,23.98
2022-08-16T07:06:04.948Z,24.29
2022-08-16T07:12:07.699Z,24.39
2022-08-16T07:18:11.177Z,24.91
2022-08-16T07:24:29.854Z,24.73
2022-08-16T07:30:39.072Z,24.76
2022-08-16T07:36:57.963Z,25.27
2022-08-16T07:43:01.411Z,25.32
2022-08-16T07:49:04.950Z,25.76
2022-08-16T07:55:16.506Z,25.88
2022-08-16T08:01:18.535Z,26.28
2022-08-16T08:07:27.642Z,26.02
2022-08-16T08:13:42.731Z,26.52
2022-08-16T08:19:45.674Z,26.39
2022-08-16T08:25:56.044Z,26.55
2022-08-16T08:32:01.012Z,27.08
2022-08-16T08:38:03.867Z,27.20
2022-08-16T08:44:29.342Z,27.84
2022-08-16T08:50:31.941Z,28.37
2022-08-16T08:56:37.397Z,28.50
2022-08-16T09:02:39.630Z,28.46
2022-08-16T09:08:47.451Z,28.80
2022-08-16T09:14:51.315Z,29.11
2022-08-16T09:20:58.409Z,29.56
2022-08-16T09:27:02.673Z,29.89
2022-08-16T09:33:07.592Z,29.73
2022-08-16T09:39:16.186Z,30.73
2022-08-16T09:45:18.822Z,31.00
2022-08-16T09:51:26.381Z,30.28
2022-08-16T09:57:41.611Z,30.40
2022-08-16T10:04:02.293Z,30.01
2022-08-16T10:10:11.186Z,30.30
2022-08-16T10:22:22.989Z,31.03
2022-08-16T10:28:27.700Z,31.69
2022-08-16T10:34:32.783Z,32.18
2022-08-16T10:40:35.382Z,32.65
2022-08-16T10:46:41.662Z,33.80
2022-08-16T10:52:44.604Z,34.49
2022-08-16T10:58:52.772Z,34.68
2022-08-16T11:05:10.754Z,36.05
2022-08-16T11:11:19.390Z,36.32
2022-08-16T11:17:21.749Z,34.74
2022-08-16T11:23:26.729Z,34.17
2022-08-16T11:29:30.207Z,33.83
2022-08-16T11:41:57.868Z,33.76
2022-08-16T11:48:00.404Z,31.71
2022-08-16T11:54:02.504Z,31.62
2022-08-16T12:00:42.653Z,32.31
2022-08-16T12:06:33.777Z,34.32
2022-08-16T12:12:35.970Z,32.72
2022-08-16T12:18:40.555Z,32.09
2022-08-16T12:24:42.765Z,31.75
2022-08-16T12:30:47.352Z,32.63
2022-08-16T12:36:49.377Z,33.83
2022-08-16T12:42:58.642Z,34.25
2022-08-16T12:49:03.436Z,36.34
2022-08-16T12:55:06.889Z,37.31
2022-08-16T13:01:10.655Z,36.66
2022-08-16T13:07:13.866Z,34.18
2022-08-16T13:13:24.933Z,32.51
2022-08-16T13:19:39.349Z,32.20
2022-08-16T13:25:51.209Z,34.39
2022-08-16T13:31:56.897Z,37.21
2022-08-16T13:37:58.847Z,38.47
2022-08-16T13:44:01.645Z,40.52
2022-08-16T13:50:13.062Z,40.16
2022-08-16T13:56:24.803Z,36.30
2022-08-16T14:02:27.452Z,34.04
2022-08-16T14:08:29.775Z,32.83
2022-08-16T14:14:33.227Z,32.00
2022-08-16T14:20:35.305Z,31.77
2022-08-16T14:26:41.567Z,31.33
2022-08-16T14:32:46.815Z,30.83
2022-08-16T14:38:53.219Z,30.65
2022-08-16T14:44:55.442Z,30.76
2022-08-16T14:50:57.837Z,30.86
2022-08-16T14:56:59.821Z,31.27
2022-08-16T15:03:09.842Z,31.55
2022-08-16T15:09:12.071Z,31.91
2022-08-16T15:15:21.927Z,31.42
2022-08-16T15:21:24.385Z,30.94
2022-08-16T15:27:35.584Z,30.72
2022-08-16T15:33:50.021Z,30.32
2022-08-16T15:39:53.876Z,30.26
2022-08-16T15:46:35.732Z,30.15
2022-08-16T15:52:38.693Z,30.01
2022-08-16T15:58:41.653Z,30.08
2022-08-16T16:04:45.280Z,29.78
2022-08-16T16:10:54.414Z,29.77
2022-08-16T16:17:00.467Z,29.86
2022-08-16T16:23:10.694Z,29.77
2022-08-16T16:29:15.191Z,29.72
2022-08-16T16:35:17.997Z,30.30
2022-08-16T16:41:25.444Z,30.56
2022-08-16T16:47:29.818Z,34.52
2022-08-16T16:53:47.848Z,34.70
2022-08-16T16:59:58.291Z,36.26
2022-08-16T17:06:09.307Z,36.57
2022-08-16T17:12:25.421Z,36.29
2022-08-16T17:19:16.605Z,36.59
2022-08-16T17:24:59.436Z,36.18
2022-08-16T17:31:01.576Z,36.67
2022-08-16T17:37:08.027Z,36.75
2022-08-16T17:43:13.528Z,35.40
2022-08-16T17:49:15.455Z,33.21
2022-08-16T17:55:33.329Z,32.04
2022-08-16T18:01:35.354Z,30.94
2022-08-16T18:07:37.353Z,29.80
2022-08-16T18:13:42.965Z,28.82
2022-08-16T18:19:45.180Z,27.95
2022-08-16T18:25:51.305Z,27.31
2022-08-16T18:31:53.274Z,26.89
2022-08-16T18:37:55.895Z,26.46
2022-08-16T18:44:24.771Z,26.11
2022-08-16T18:50:22.140Z,25.78
2022-08-16T18:56:24.807Z,25.29
2022-08-16T19:02:59.128Z,24.91
2022-08-16T19:09:01.499Z,24.89
2022-08-16T19:15:07.154Z,24.26
2022-08-16T19:21:11.535Z,24.34
2022-08-16T19:27:16.753Z,24.29
2022-08-16T19:33:21.817Z,24.23
2022-08-16T19:39:23.873Z,24.00
2022-08-16T19:45:26.033Z,23.91
2022-08-16T19:51:28.194Z,23.82
2022-08-16T19:57:30.874Z,23.66
2022-08-16T20:03:32.941Z,23.64
2022-08-16T20:09:35.197Z,23.33
2022-08-16T20:15:40.645Z,23.16
2022-08-16T20:21:43.085Z,23.13
2022-08-16T20:27:45.278Z,23.10
2022-08-16T20:33:47.269Z,23.00
2022-08-16T20:40:28.457Z,22.84
2022-08-16T20:46:17.075Z,22.78
2022-08-16T20:52:22.214Z,22.57
2022-08-16T20:58:24.227Z,22.42
2022-08-16T21:04:28.540Z,22.32
2022-08-16T21:10:30.840Z,22.36
2022-08-16T21:16:32.802Z,22.06
2022-08-16T21:22:34.779Z,21.89
2022-08-16T21:28:41.183Z,21.81
2022-08-16T21:34:45.728Z,21.71
2022-08-16T21:40:48.234Z,21.60
2022-08-16T21:46:53.683Z,21.52
2022-08-16T21:53:13.557Z,21.38
2022-08-16T21:59:15.698Z,21.40
2022-08-16T22:05:17.699Z,21.16
2022-08-16T22:11:21.896Z,21.04
2022-08-16T22:17:23.900Z,20.91
2022-08-16T22:23:28.944Z,20.75
2022-08-16T22:29:30.898Z,20.66
2022-08-16T22:35:32.949Z,20.58
2022-08-16T22:41:36.463Z,20.35
2022-08-16T22:47:38.415Z,20.06
2022-08-16T22:53:40.412Z,20.04
2022-08-16T22:59:42.380Z,19.93
2022-08-16T23:05:57.625Z,19.79
2022-08-16T23:12:04.037Z,19.60
2022-08-16T23:18:06.488Z,19.49
2022-08-16T23:24:08.963Z,19.49
2022-08-16T23:30:11.735Z,19.45
2022-08-16T23:36:13.834Z,19.40
2022-08-16T23:42:44.164Z,19.10
2022-08-16T23:49:58.370Z,19.04
2022-08-16T23:55:05.611Z,18.90
